Fort de Russy, Louisiana
Current Conditions -  °F | °C
As of 1:53 PM on Sunday 25 Jan 2015 (Local Time) from KESF Reporting Station
Clear Clear  
Wind Chill: 67°   Ceiling: Unl
Heat Index: 67°   Visibility: 10mi
Dew Point: 41°   Wind: 17mph
Humidity: 39%   Direction: 270°W
Pressure: 29.84"   Gusts: 23mph
Location:  31.175°N, 91.9985°W
Report Text: KESF 251953Z AUTO 27015G20KT 10SM CLR 19/05 A2984 RMK AO2 SLP105 T01940050
Loading
Personal Weather Stations






























Interactive Weather Map New forecast layout! Learn more

10-Day Weather Forecast

Advertisements
Track Severe Weather on mobile